sensor_id;sensor_type;location;lat;lon;timestamp;P1;durP1;ratioP1;P2;durP2;ratioP2
30647;SDS011;17683;53.360;9.736;2023-05-23T00:01:20;13.60;;;12.30;;
30647;SDS011;17683;53.360;9.736;2023-05-23T00:03:46;15.13;;;13.75;;
30647;SDS011;17683;53.360;9.736;2023-05-23T00:06:13;14.30;;;12.90;;
30647;SDS011;17683;53.360;9.736;2023-05-23T00:08:39;14.70;;;12.77;;
30647;SDS011;17683;53.360;9.736;2023-05-23T00:11:04;14.77;;;13.30;;
30647;SDS011;17683;53.360;9.736;2023-05-23T00:13:30;13.13;;;11.93;;
30647;SDS011;17683;53.360;9.736;2023-05-23T00:15:58;13.65;;;12.45;;
30647;SDS011;17683;53.360;9.736;2023-05-23T00:18:24;15.52;;;13.23;;
30647;SDS011;17683;53.360;9.736;2023-05-23T00:20:50;15.25;;;11.90;;
30647;SDS011;17683;53.360;9.736;2023-05-23T00:23:16;15.77;;;14.15;;
30647;SDS011;17683;53.360;9.736;2023-05-23T00:25:45;17.08;;;15.10;;
30647;SDS011;17683;53.360;9.736;2023-05-23T00:28:16;17.10;;;14.77;;
30647;SDS011;17683;53.360;9.736;2023-05-23T00:30:42;17.52;;;14.65;;
30647;SDS011;17683;53.360;9.736;2023-05-23T00:33:08;23.38;;;20.73;;
30647;SDS011;17683;53.360;9.736;2023-05-23T00:35:34;26.25;;;22.95;;
30647;SDS011;17683;53.360;9.736;2023-05-23T00:37:59;30.75;;;27.63;;
30647;SDS011;17683;53.360;9.736;2023-05-23T00:40:26;34.17;;;30.58;;
30647;SDS011;17683;53.360;9.736;2023-05-23T00:42:52;31.50;;;28.17;;
30647;SDS011;17683;53.360;9.736;2023-05-23T00:45:18;24.75;;;22.13;;
30647;SDS011;17683;53.360;9.736;2023-05-23T00:47:43;26.00;;;23.08;;
30647;SDS011;17683;53.360;9.736;2023-05-23T00:50:11;27.17;;;24.35;;
30647;SDS011;17683;53.360;9.736;2023-05-23T00:52:41;25.98;;;23.17;;
30647;SDS011;17683;53.360;9.736;2023-05-23T00:55:09;23.75;;;21.45;;
30647;SDS011;17683;53.360;9.736;2023-05-23T00:57:35;26.98;;;23.13;;
30647;SDS011;17683;53.360;9.736;2023-05-23T01:00:09;27.63;;;23.58;;
30647;SDS011;17683;53.360;9.736;2023-05-23T01:02:46;27.05;;;24.20;;
30647;SDS011;17683;53.360;9.736;2023-05-23T01:05:15;27.08;;;24.35;;
30647;SDS011;17683;53.360;9.736;2023-05-23T01:07:48;25.58;;;22.92;;
30647;SDS011;17683;53.360;9.736;2023-05-23T01:10:18;28.65;;;24.67;;
30647;SDS011;17683;53.360;9.736;2023-05-23T01:18:45;28.63;;;25.75;;
30647;SDS011;17683;53.360;9.736;2023-05-23T01:21:01;28.20;;;25.45;;
30647;SDS011;17683;53.360;9.736;2023-05-23T01:29:07;37.15;;;31.52;;
30647;SDS011;17683;53.360;9.736;2023-05-23T01:31:46;39.10;;;32.40;;
30647;SDS011;17683;53.360;9.736;2023-05-23T01:34:16;40.78;;;35.65;;
30647;SDS011;17683;53.360;9.736;2023-05-23T01:36:43;44.97;;;37.53;;
30647;SDS011;17683;53.360;9.736;2023-05-23T01:39:09;45.88;;;39.08;;
30647;SDS011;17683;53.360;9.736;2023-05-23T01:41:35;47.88;;;36.47;;
30647;SDS011;17683;53.360;9.736;2023-05-23T01:44:01;53.63;;;41.10;;
30647;SDS011;17683;53.360;9.736;2023-05-23T01:46:27;47.28;;;37.88;;
30647;SDS011;17683;53.360;9.736;2023-05-23T01:48:55;50.88;;;39.22;;
30647;SDS011;17683;53.360;9.736;2023-05-23T01:51:22;54.88;;;41.67;;
30647;SDS011;17683;53.360;9.736;2023-05-23T01:53:51;49.42;;;36.42;;
30647;SDS011;17683;53.360;9.736;2023-05-23T01:56:17;49.35;;;37.72;;
30647;SDS011;17683;53.360;9.736;2023-05-23T01:58:45;48.70;;;38.53;;
30647;SDS011;17683;53.360;9.736;2023-05-23T02:01:11;47.85;;;37.95;;
30647;SDS011;17683;53.360;9.736;2023-05-23T02:03:37;44.42;;;36.55;;
30647;SDS011;17683;53.360;9.736;2023-05-23T02:06:03;47.67;;;36.13;;
30647;SDS011;17683;53.360;9.736;2023-05-23T02:08:29;48.80;;;35.58;;
30647;SDS011;17683;53.360;9.736;2023-05-23T02:10:55;41.17;;;33.40;;
30647;SDS011;17683;53.360;9.736;2023-05-23T02:13:20;47.13;;;35.33;;
30647;SDS011;17683;53.360;9.736;2023-05-23T02:15:46;45.47;;;32.95;;
30647;SDS011;17683;53.360;9.736;2023-05-23T02:18:12;39.63;;;31.25;;
30647;SDS011;17683;53.360;9.736;2023-05-23T02:20:37;54.78;;;35.05;;
30647;SDS011;17683;53.360;9.736;2023-05-23T02:23:04;51.70;;;35.92;;
30647;SDS011;17683;53.360;9.736;2023-05-23T02:25:30;40.17;;;30.63;;
30647;SDS011;17683;53.360;9.736;2023-05-23T02:27:56;45.03;;;30.55;;
30647;SDS011;17683;53.360;9.736;2023-05-23T02:30:21;42.72;;;31.25;;
30647;SDS011;17683;53.360;9.736;2023-05-23T02:32:47;45.92;;;33.47;;
30647;SDS011;17683;53.360;9.736;2023-05-23T02:35:13;45.65;;;32.42;;
30647;SDS011;17683;53.360;9.736;2023-05-23T02:37:38;42.47;;;31.02;;
30647;SDS011;17683;53.360;9.736;2023-05-23T02:40:04;43.00;;;34.00;;
30647;SDS011;17683;53.360;9.736;2023-05-23T02:42:31;44.65;;;30.48;;
30647;SDS011;17683;53.360;9.736;2023-05-23T02:44:57;44.58;;;32.38;;
30647;SDS011;17683;53.360;9.736;2023-05-23T02:47:23;44.35;;;32.08;;
30647;SDS011;17683;53.360;9.736;2023-05-23T02:49:49;43.88;;;31.40;;
30647;SDS011;17683;53.360;9.736;2023-05-23T02:52:15;41.65;;;29.08;;
30647;SDS011;17683;53.360;9.736;2023-05-23T02:54:41;39.75;;;29.17;;
30647;SDS011;17683;53.360;9.736;2023-05-23T02:57:07;36.67;;;28.02;;
30647;SDS011;17683;53.360;9.736;2023-05-23T02:59:32;39.88;;;27.20;;
30647;SDS011;17683;53.360;9.736;2023-05-23T03:01:58;34.50;;;26.58;;
30647;SDS011;17683;53.360;9.736;2023-05-23T03:04:24;39.25;;;30.20;;
30647;SDS011;17683;53.360;9.736;2023-05-23T03:06:50;34.13;;;27.23;;
30647;SDS011;17683;53.360;9.736;2023-05-23T03:09:18;39.30;;;29.17;;
30647;SDS011;17683;53.360;9.736;2023-05-23T03:11:44;30.50;;;23.88;;
30647;SDS011;17683;53.360;9.736;2023-05-23T03:14:09;36.30;;;24.08;;
30647;SDS011;17683;53.360;9.736;2023-05-23T03:16:35;37.80;;;26.10;;
30647;SDS011;17683;53.360;9.736;2023-05-23T03:19:01;30.58;;;23.55;;
30647;SDS011;17683;53.360;9.736;2023-05-23T03:21:28;37.67;;;25.70;;
30647;SDS011;17683;53.360;9.736;2023-05-23T03:23:55;28.08;;;22.15;;
30647;SDS011;17683;53.360;9.736;2023-05-23T03:26:21;31.38;;;24.45;;
30647;SDS011;17683;53.360;9.736;2023-05-23T03:28:48;31.20;;;24.52;;
30647;SDS011;17683;53.360;9.736;2023-05-23T03:31:15;31.25;;;23.92;;
30647;SDS011;17683;53.360;9.736;2023-05-23T03:33:41;29.67;;;21.45;;
30647;SDS011;17683;53.360;9.736;2023-05-23T03:36:06;35.58;;;23.08;;
30647;SDS011;17683;53.360;9.736;2023-05-23T03:38:32;28.88;;;22.90;;
30647;SDS011;17683;53.360;9.736;2023-05-23T03:40:58;31.40;;;23.98;;
30647;SDS011;17683;53.360;9.736;2023-05-23T03:43:24;41.67;;;25.15;;
30647;SDS011;17683;53.360;9.736;2023-05-23T03:45:49;31.13;;;23.90;;
30647;SDS011;17683;53.360;9.736;2023-05-23T03:48:15;31.55;;;22.65;;
30647;SDS011;17683;53.360;9.736;2023-05-23T03:50:41;32.03;;;24.50;;
30647;SDS011;17683;53.360;9.736;2023-05-23T03:53:07;30.42;;;22.38;;
30647;SDS011;17683;53.360;9.736;2023-05-23T03:55:32;29.98;;;21.85;;
30647;SDS011;17683;53.360;9.736;2023-05-23T03:57:58;32.85;;;24.67;;
30647;SDS011;17683;53.360;9.736;2023-05-23T04:00:24;28.08;;;21.70;;
30647;SDS011;17683;53.360;9.736;2023-05-23T04:02:50;31.80;;;22.77;;
30647;SDS011;17683;53.360;9.736;2023-05-23T04:05:16;29.83;;;23.60;;
30647;SDS011;17683;53.360;9.736;2023-05-23T04:07:42;30.48;;;23.05;;
30647;SDS011;17683;53.360;9.736;2023-05-23T04:10:08;32.33;;;22.48;;
30647;SDS011;17683;53.360;9.736;2023-05-23T04:12:34;29.88;;;21.65;;
30647;SDS011;17683;53.360;9.736;2023-05-23T04:15:00;30.42;;;23.25;;
30647;SDS011;17683;53.360;9.736;2023-05-23T04:17:26;29.75;;;22.73;;
30647;SDS011;17683;53.360;9.736;2023-05-23T04:19:53;32.63;;;22.40;;
30647;SDS011;17683;53.360;9.736;2023-05-23T04:22:19;29.95;;;21.67;;
30647;SDS011;17683;53.360;9.736;2023-05-23T04:24:45;28.40;;;21.70;;
30647;SDS011;17683;53.360;9.736;2023-05-23T04:27:10;28.42;;;21.17;;
30647;SDS011;17683;53.360;9.736;2023-05-23T04:29:37;28.63;;;22.67;;
30647;SDS011;17683;53.360;9.736;2023-05-23T04:32:03;29.02;;;21.77;;
30647;SDS011;17683;53.360;9.736;2023-05-23T04:34:33;27.42;;;21.48;;
30647;SDS011;17683;53.360;9.736;2023-05-23T04:36:59;30.45;;;22.33;;
30647;SDS011;17683;53.360;9.736;2023-05-23T04:39:28;30.75;;;21.40;;
30647;SDS011;17683;53.360;9.736;2023-05-23T04:41:54;27.20;;;20.38;;
30647;SDS011;17683;53.360;9.736;2023-05-23T04:44:20;27.92;;;21.55;;
30647;SDS011;17683;53.360;9.736;2023-05-23T04:46:47;27.30;;;20.65;;
30647;SDS011;17683;53.360;9.736;2023-05-23T04:49:14;30.88;;;22.48;;
30647;SDS011;17683;53.360;9.736;2023-05-23T04:51:40;34.38;;;25.50;;
30647;SDS011;17683;53.360;9.736;2023-05-23T04:54:06;32.83;;;23.25;;
30647;SDS011;17683;53.360;9.736;2023-05-23T04:56:32;29.95;;;22.48;;
30647;SDS011;17683;53.360;9.736;2023-05-23T04:58:58;30.95;;;22.17;;
30647;SDS011;17683;53.360;9.736;2023-05-23T05:01:24;38.97;;;25.60;;
30647;SDS011;17683;53.360;9.736;2023-05-23T05:03:50;46.67;;;25.70;;
30647;SDS011;17683;53.360;9.736;2023-05-23T05:06:16;43.60;;;25.98;;
30647;SDS011;17683;53.360;9.736;2023-05-23T05:08:43;39.72;;;26.05;;
30647;SDS011;17683;53.360;9.736;2023-05-23T05:11:09;40.78;;;27.08;;
30647;SDS011;17683;53.360;9.736;2023-05-23T05:13:35;46.88;;;30.05;;
30647;SDS011;17683;53.360;9.736;2023-05-23T05:16:01;49.65;;;30.42;;
30647;SDS011;17683;53.360;9.736;2023-05-23T05:18:27;46.97;;;29.08;;
30647;SDS011;17683;53.360;9.736;2023-05-23T05:20:53;47.38;;;30.80;;
30647;SDS011;17683;53.360;9.736;2023-05-23T05:23:24;36.63;;;25.77;;
30647;SDS011;17683;53.360;9.736;2023-05-23T05:25:50;40.15;;;29.23;;
30647;SDS011;17683;53.360;9.736;2023-05-23T05:28:16;46.85;;;30.52;;
30647;SDS011;17683;53.360;9.736;2023-05-23T05:30:41;41.28;;;28.58;;
30647;SDS011;17683;53.360;9.736;2023-05-23T05:33:07;41.83;;;29.05;;
30647;SDS011;17683;53.360;9.736;2023-05-23T05:35:34;38.25;;;27.38;;
30647;SDS011;17683;53.360;9.736;2023-05-23T05:38:00;41.15;;;29.35;;
30647;SDS011;17683;53.360;9.736;2023-05-23T05:40:30;41.03;;;29.65;;
30647;SDS011;17683;53.360;9.736;2023-05-23T05:42:56;40.08;;;28.83;;
30647;SDS011;17683;53.360;9.736;2023-05-23T05:45:22;38.00;;;27.13;;
30647;SDS011;17683;53.360;9.736;2023-05-23T05:47:48;43.00;;;27.70;;
30647;SDS011;17683;53.360;9.736;2023-05-23T05:50:13;45.08;;;28.42;;
30647;SDS011;17683;53.360;9.736;2023-05-23T05:52:39;44.20;;;30.45;;
30647;SDS011;17683;53.360;9.736;2023-05-23T05:55:06;36.25;;;27.98;;
30647;SDS011;17683;53.360;9.736;2023-05-23T05:57:35;35.25;;;27.15;;
30647;SDS011;17683;53.360;9.736;2023-05-23T06:00:09;37.35;;;28.48;;
30647;SDS011;17683;53.360;9.736;2023-05-23T06:02:39;37.33;;;27.70;;
30647;SDS011;17683;53.360;9.736;2023-05-23T06:05:07;37.97;;;27.17;;
30647;SDS011;17683;53.360;9.736;2023-05-23T06:07:36;34.17;;;27.27;;
30647;SDS011;17683;53.360;9.736;2023-05-23T06:10:03;36.38;;;28.35;;
30647;SDS011;17683;53.360;9.736;2023-05-23T06:12:29;36.45;;;27.58;;
30647;SDS011;17683;53.360;9.736;2023-05-23T06:14:55;34.05;;;26.17;;
30647;SDS011;17683;53.360;9.736;2023-05-23T06:17:20;36.28;;;26.40;;
30647;SDS011;17683;53.360;9.736;2023-05-23T06:19:46;29.33;;;24.00;;
30647;SDS011;17683;53.360;9.736;2023-05-23T06:22:12;30.00;;;23.20;;
30647;SDS011;17683;53.360;9.736;2023-05-23T06:24:38;31.73;;;24.25;;
30647;SDS011;17683;53.360;9.736;2023-05-23T06:27:03;29.73;;;23.90;;
30647;SDS011;17683;53.360;9.736;2023-05-23T06:29:29;31.27;;;23.95;;
30647;SDS011;17683;53.360;9.736;2023-05-23T06:31:55;25.20;;;20.92;;
30647;SDS011;17683;53.360;9.736;2023-05-23T06:34:21;23.75;;;20.25;;
30647;SDS011;17683;53.360;9.736;2023-05-23T06:36:47;23.08;;;19.08;;
30647;SDS011;17683;53.360;9.736;2023-05-23T06:39:13;21.13;;;18.17;;
30647;SDS011;17683;53.360;9.736;2023-05-23T06:41:39;21.15;;;17.63;;
30647;SDS011;17683;53.360;9.736;2023-05-23T06:44:05;22.92;;;17.80;;
30647;SDS011;17683;53.360;9.736;2023-05-23T06:46:30;20.80;;;16.98;;
30647;SDS011;17683;53.360;9.736;2023-05-23T06:48:56;23.13;;;20.08;;
30647;SDS011;17683;53.360;9.736;2023-05-23T06:51:22;24.45;;;19.35;;
30647;SDS011;17683;53.360;9.736;2023-05-23T06:53:48;27.98;;;24.60;;
30647;SDS011;17683;53.360;9.736;2023-05-23T06:56:14;27.92;;;25.02;;
30647;SDS011;17683;53.360;9.736;2023-05-23T06:58:40;31.00;;;27.65;;
30647;SDS011;17683;53.360;9.736;2023-05-23T07:01:06;34.95;;;29.30;;
30647;SDS011;17683;53.360;9.736;2023-05-23T07:03:31;31.55;;;28.02;;
30647;SDS011;17683;53.360;9.736;2023-05-23T07:05:57;30.95;;;27.40;;
30647;SDS011;17683;53.360;9.736;2023-05-23T07:08:23;31.00;;;25.88;;
30647;SDS011;17683;53.360;9.736;2023-05-23T07:10:49;29.00;;;24.95;;
30647;SDS011;17683;53.360;9.736;2023-05-23T07:13:15;26.63;;;23.70;;
30647;SDS011;17683;53.360;9.736;2023-05-23T07:15:40;26.02;;;21.65;;
30647;SDS011;17683;53.360;9.736;2023-05-23T07:18:06;24.80;;;21.50;;
30647;SDS011;17683;53.360;9.736;2023-05-23T07:20:32;23.00;;;19.48;;
30647;SDS011;17683;53.360;9.736;2023-05-23T07:22:58;24.17;;;21.38;;
30647;SDS011;17683;53.360;9.736;2023-05-23T07:25:24;21.73;;;19.48;;
30647;SDS011;17683;53.360;9.736;2023-05-23T07:27:51;22.30;;;19.90;;
30647;SDS011;17683;53.360;9.736;2023-05-23T07:30:18;23.48;;;19.20;;
30647;SDS011;17683;53.360;9.736;2023-05-23T07:32:45;22.80;;;20.38;;
30647;SDS011;17683;53.360;9.736;2023-05-23T07:35:12;27.08;;;19.58;;
30647;SDS011;17683;53.360;9.736;2023-05-23T07:37:38;21.88;;;19.58;;
30647;SDS011;17683;53.360;9.736;2023-05-23T07:40:04;21.58;;;18.30;;
30647;SDS011;17683;53.360;9.736;2023-05-23T07:42:30;20.10;;;17.98;;
30647;SDS011;17683;53.360;9.736;2023-05-23T07:44:56;21.08;;;17.75;;
30647;SDS011;17683;53.360;9.736;2023-05-23T07:47:21;24.33;;;19.52;;
30647;SDS011;17683;53.360;9.736;2023-05-23T07:49:48;24.25;;;18.13;;
30647;SDS011;17683;53.360;9.736;2023-05-23T07:52:16;19.15;;;17.02;;
30647;SDS011;17683;53.360;9.736;2023-05-23T07:54:41;17.52;;;15.63;;
30647;SDS011;17683;53.360;9.736;2023-05-23T07:57:08;20.88;;;15.48;;
30647;SDS011;17683;53.360;9.736;2023-05-23T07:59:34;16.65;;;14.52;;
30647;SDS011;17683;53.360;9.736;2023-05-23T08:02:00;20.42;;;15.65;;
30647;SDS011;17683;53.360;9.736;2023-05-23T08:04:26;16.75;;;14.20;;
30647;SDS011;17683;53.360;9.736;2023-05-23T08:06:53;20.02;;;14.07;;
30647;SDS011;17683;53.360;9.736;2023-05-23T08:09:19;18.10;;;12.60;;
30647;SDS011;17683;53.360;9.736;2023-05-23T08:11:46;16.88;;;11.20;;
30647;SDS011;17683;53.360;9.736;2023-05-23T08:14:12;12.15;;;9.70;;
30647;SDS011;17683;53.360;9.736;2023-05-23T08:16:38;8.02;;;7.22;;
30647;SDS011;17683;53.360;9.736;2023-05-23T08:19:04;7.93;;;6.25;;
30647;SDS011;17683;53.360;9.736;2023-05-23T08:21:30;10.57;;;6.38;;
30647;SDS011;17683;53.360;9.736;2023-05-23T08:23:56;12.48;;;5.25;;
30647;SDS011;17683;53.360;9.736;2023-05-23T08:26:22;14.23;;;6.18;;
30647;SDS011;17683;53.360;9.736;2023-05-23T08:28:47;10.70;;;5.40;;
30647;SDS011;17683;53.360;9.736;2023-05-23T08:31:13;13.68;;;6.80;;
30647;SDS011;17683;53.360;9.736;2023-05-23T08:33:39;14.23;;;6.65;;
30647;SDS011;17683;53.360;9.736;2023-05-23T08:36:05;14.43;;;6.97;;
30647;SDS011;17683;53.360;9.736;2023-05-23T08:38:31;11.32;;;7.15;;
30647;SDS011;17683;53.360;9.736;2023-05-23T08:40:58;16.95;;;7.38;;
30647;SDS011;17683;53.360;9.736;2023-05-23T08:43:25;14.63;;;8.45;;
30647;SDS011;17683;53.360;9.736;2023-05-23T08:45:51;18.40;;;8.60;;
30647;SDS011;17683;53.360;9.736;2023-05-23T08:48:19;16.55;;;8.15;;
30647;SDS011;17683;53.360;9.736;2023-05-23T08:50:45;14.10;;;8.45;;
30647;SDS011;17683;53.360;9.736;2023-05-23T08:53:16;12.05;;;7.00;;
30647;SDS011;17683;53.360;9.736;2023-05-23T08:55:46;21.02;;;9.00;;
30647;SDS011;17683;53.360;9.736;2023-05-23T08:58:16;14.85;;;7.97;;
30647;SDS011;17683;53.360;9.736;2023-05-23T09:00:44;16.70;;;8.50;;
30647;SDS011;17683;53.360;9.736;2023-05-23T09:03:11;11.95;;;7.22;;
30647;SDS011;17683;53.360;9.736;2023-05-23T09:05:38;16.80;;;7.20;;
30647;SDS011;17683;53.360;9.736;2023-05-23T09:08:05;18.98;;;6.85;;
30647;SDS011;17683;53.360;9.736;2023-05-23T09:10:31;23.33;;;6.47;;
30647;SDS011;17683;53.360;9.736;2023-05-23T09:12:57;15.07;;;5.78;;
30647;SDS011;17683;53.360;9.736;2023-05-23T09:15:22;15.65;;;6.13;;
30647;SDS011;17683;53.360;9.736;2023-05-23T09:17:48;9.48;;;5.35;;
30647;SDS011;17683;53.360;9.736;2023-05-23T09:20:15;12.95;;;6.18;;
30647;SDS011;17683;53.360;9.736;2023-05-23T09:22:48;9.25;;;5.13;;
30647;SDS011;17683;53.360;9.736;2023-05-23T09:25:14;28.63;;;6.47;;
30647;SDS011;17683;53.360;9.736;2023-05-23T09:27:41;12.32;;;6.03;;
30647;SDS011;17683;53.360;9.736;2023-05-23T09:30:07;11.90;;;4.95;;
30647;SDS011;17683;53.360;9.736;2023-05-23T09:32:34;10.23;;;4.88;;
30647;SDS011;17683;53.360;9.736;2023-05-23T09:35:03;9.43;;;4.47;;
30647;SDS011;17683;53.360;9.736;2023-05-23T09:37:34;9.88;;;4.28;;
30647;SDS011;17683;53.360;9.736;2023-05-23T09:40:08;12.85;;;4.72;;
30647;SDS011;17683;53.360;9.736;2023-05-23T09:42:40;19.35;;;5.38;;
30647;SDS011;17683;53.360;9.736;2023-05-23T09:45:08;13.80;;;4.10;;
30647;SDS011;17683;53.360;9.736;2023-05-23T09:47:35;12.02;;;4.18;;
30647;SDS011;17683;53.360;9.736;2023-05-23T09:50:00;12.13;;;3.67;;
30647;SDS011;17683;53.360;9.736;2023-05-23T09:52:27;16.85;;;4.55;;
30647;SDS011;17683;53.360;9.736;2023-05-23T09:55:05;17.65;;;4.63;;
30647;SDS011;17683;53.360;9.736;2023-05-23T09:57:32;15.43;;;4.40;;
30647;SDS011;17683;53.360;9.736;2023-05-23T10:00:03;15.63;;;4.43;;
30647;SDS011;17683;53.360;9.736;2023-05-23T10:13:24;13.10;;;3.53;;
30647;SDS011;17683;53.360;9.736;2023-05-23T10:15:58;13.63;;;4.25;;
30647;SDS011;17683;53.360;9.736;2023-05-23T10:18:28;9.27;;;3.65;;
30647;SDS011;17683;53.360;9.736;2023-05-23T10:20:56;17.08;;;4.47;;
30647;SDS011;17683;53.360;9.736;2023-05-23T10:23:30;12.88;;;3.75;;
30647;SDS011;17683;53.360;9.736;2023-05-23T10:25:57;15.73;;;4.68;;
30647;SDS011;17683;53.360;9.736;2023-05-23T10:28:23;16.65;;;4.07;;
30647;SDS011;17683;53.360;9.736;2023-05-23T10:30:51;15.95;;;4.65;;
30647;SDS011;17683;53.360;9.736;2023-05-23T10:33:16;15.55;;;3.47;;
30647;SDS011;17683;53.360;9.736;2023-05-23T10:35:54;14.43;;;4.03;;
30647;SDS011;17683;53.360;9.736;2023-05-23T10:38:50;12.15;;;3.75;;
30647;SDS011;17683;53.360;9.736;2023-05-23T10:41:20;10.20;;;4.05;;
30647;SDS011;17683;53.360;9.736;2023-05-23T10:46:21;21.40;;;4.25;;
30647;SDS011;17683;53.360;9.736;2023-05-23T10:48:47;16.15;;;4.40;;
30647;SDS011;17683;53.360;9.736;2023-05-23T10:51:21;11.27;;;4.72;;
30647;SDS011;17683;53.360;9.736;2023-05-23T10:53:51;14.63;;;3.70;;
30647;SDS011;17683;53.360;9.736;2023-05-23T10:56:22;14.18;;;4.15;;
30647;SDS011;17683;53.360;9.736;2023-05-23T10:58:51;12.63;;;4.32;;
30647;SDS011;17683;53.360;9.736;2023-05-23T11:01:18;18.15;;;4.10;;
30647;SDS011;17683;53.360;9.736;2023-05-23T11:06:29;10.98;;;3.67;;
30647;SDS011;17683;53.360;9.736;2023-05-23T11:09:16;10.48;;;3.85;;
30647;SDS011;17683;53.360;9.736;2023-05-23T11:14:17;13.52;;;3.67;;
30647;SDS011;17683;53.360;9.736;2023-05-23T11:16:44;15.02;;;3.47;;
30647;SDS011;17683;53.360;9.736;2023-05-23T11:21:49;19.58;;;4.45;;
30647;SDS011;17683;53.360;9.736;2023-05-23T11:24:17;16.23;;;4.57;;
30647;SDS011;17683;53.360;9.736;2023-05-23T11:26:53;15.52;;;3.75;;
30647;SDS011;17683;53.360;9.736;2023-05-23T11:29:25;16.98;;;4.43;;
30647;SDS011;17683;53.360;9.736;2023-05-23T11:31:52;14.30;;;4.43;;
30647;SDS011;17683;53.360;9.736;2023-05-23T11:34:19;17.27;;;4.03;;
30647;SDS011;17683;53.360;9.736;2023-05-23T11:36:45;12.20;;;3.83;;
30647;SDS011;17683;53.360;9.736;2023-05-23T11:39:12;14.40;;;3.85;;
30647;SDS011;17683;53.360;9.736;2023-05-23T11:41:38;14.75;;;4.72;;
30647;SDS011;17683;53.360;9.736;2023-05-23T11:44:09;14.07;;;4.07;;
30647;SDS011;17683;53.360;9.736;2023-05-23T11:46:37;15.93;;;4.68;;
30647;SDS011;17683;53.360;9.736;2023-05-23T11:49:09;17.33;;;4.00;;
30647;SDS011;17683;53.360;9.736;2023-05-23T11:51:36;19.95;;;3.75;;
30647;SDS011;17683;53.360;9.736;2023-05-23T11:54:01;18.10;;;5.00;;
30647;SDS011;17683;53.360;9.736;2023-05-23T11:56:27;13.35;;;4.30;;
30647;SDS011;17683;53.360;9.736;2023-05-23T11:58:53;12.40;;;4.72;;
30647;SDS011;17683;53.360;9.736;2023-05-23T12:01:27;15.70;;;4.60;;
30647;SDS011;17683;53.360;9.736;2023-05-23T12:06:21;16.88;;;5.10;;
30647;SDS011;17683;53.360;9.736;2023-05-23T12:08:50;25.63;;;4.85;;
30647;SDS011;17683;53.360;9.736;2023-05-23T12:11:16;14.98;;;4.55;;
30647;SDS011;17683;53.360;9.736;2023-05-23T12:13:42;13.60;;;4.90;;
30647;SDS011;17683;53.360;9.736;2023-05-23T12:16:08;14.73;;;4.45;;
30647;SDS011;17683;53.360;9.736;2023-05-23T12:18:37;10.70;;;3.80;;
30647;SDS011;17683;53.360;9.736;2023-05-23T12:21:03;21.33;;;4.40;;
30647;SDS011;17683;53.360;9.736;2023-05-23T12:23:32;17.00;;;4.30;;
30647;SDS011;17683;53.360;9.736;2023-05-23T12:25:58;16.13;;;4.47;;
30647;SDS011;17683;53.360;9.736;2023-05-23T12:28:33;19.50;;;5.28;;
30647;SDS011;17683;53.360;9.736;2023-05-23T12:31:12;11.15;;;4.07;;
30647;SDS011;17683;53.360;9.736;2023-05-23T12:33:38;22.08;;;4.93;;
30647;SDS011;17683;53.360;9.736;2023-05-23T12:36:07;12.57;;;4.28;;
30647;SDS011;17683;53.360;9.736;2023-05-23T12:38:33;18.48;;;5.18;;
30647;SDS011;17683;53.360;9.736;2023-05-23T12:41:11;16.52;;;5.07;;
30647;SDS011;17683;53.360;9.736;2023-05-23T12:43:48;16.25;;;4.30;;
30647;SDS011;17683;53.360;9.736;2023-05-23T12:46:15;19.65;;;4.57;;
30647;SDS011;17683;53.360;9.736;2023-05-23T12:48:41;15.48;;;4.45;;
30647;SDS011;17683;53.360;9.736;2023-05-23T12:51:07;15.88;;;4.07;;
30647;SDS011;17683;53.360;9.736;2023-05-23T12:53:32;23.15;;;5.68;;
30647;SDS011;17683;53.360;9.736;2023-05-23T12:55:58;15.40;;;4.25;;
30647;SDS011;17683;53.360;9.736;2023-05-23T12:58:24;16.65;;;4.80;;
30647;SDS011;17683;53.360;9.736;2023-05-23T13:00:50;18.38;;;5.45;;
30647;SDS011;17683;53.360;9.736;2023-05-23T13:03:16;18.90;;;5.22;;
30647;SDS011;17683;53.360;9.736;2023-05-23T13:05:42;18.23;;;4.85;;
30647;SDS011;17683;53.360;9.736;2023-05-23T13:08:08;17.02;;;4.93;;
30647;SDS011;17683;53.360;9.736;2023-05-23T13:10:34;20.27;;;5.07;;
30647;SDS011;17683;53.360;9.736;2023-05-23T13:12:59;15.52;;;5.15;;
30647;SDS011;17683;53.360;9.736;2023-05-23T13:15:26;17.40;;;4.80;;
30647;SDS011;17683;53.360;9.736;2023-05-23T13:17:52;23.35;;;5.05;;
30647;SDS011;17683;53.360;9.736;2023-05-23T13:20:17;20.65;;;5.72;;
30647;SDS011;17683;53.360;9.736;2023-05-23T13:22:43;16.70;;;4.82;;
30647;SDS011;17683;53.360;9.736;2023-05-23T13:25:09;20.55;;;5.43;;
30647;SDS011;17683;53.360;9.736;2023-05-23T13:27:35;21.50;;;5.78;;
30647;SDS011;17683;53.360;9.736;2023-05-23T13:30:01;14.93;;;4.38;;
30647;SDS011;17683;53.360;9.736;2023-05-23T13:32:26;16.75;;;4.78;;
30647;SDS011;17683;53.360;9.736;2023-05-23T13:34:52;17.75;;;5.35;;
30647;SDS011;17683;53.360;9.736;2023-05-23T13:37:18;19.05;;;4.93;;
30647;SDS011;17683;53.360;9.736;2023-05-23T13:39:44;15.95;;;5.03;;
30647;SDS011;17683;53.360;9.736;2023-05-23T13:42:09;15.50;;;4.75;;
30647;SDS011;17683;53.360;9.736;2023-05-23T13:44:35;22.98;;;4.72;;
30647;SDS011;17683;53.360;9.736;2023-05-23T13:47:10;16.63;;;5.18;;
30647;SDS011;17683;53.360;9.736;2023-05-23T13:49:37;16.98;;;4.50;;
30647;SDS011;17683;53.360;9.736;2023-05-23T13:52:03;16.17;;;4.40;;
30647;SDS011;17683;53.360;9.736;2023-05-23T13:54:30;15.38;;;5.10;;
30647;SDS011;17683;53.360;9.736;2023-05-23T13:56:56;23.85;;;4.90;;
30647;SDS011;17683;53.360;9.736;2023-05-23T13:59:23;15.02;;;5.03;;
30647;SDS011;17683;53.360;9.736;2023-05-23T14:01:52;19.55;;;4.85;;
30647;SDS011;17683;53.360;9.736;2023-05-23T14:04:18;19.92;;;4.55;;
30647;SDS011;17683;53.360;9.736;2023-05-23T14:06:44;21.17;;;4.90;;
30647;SDS011;17683;53.360;9.736;2023-05-23T14:09:10;19.10;;;4.65;;
30647;SDS011;17683;53.360;9.736;2023-05-23T14:11:36;22.90;;;5.20;;
30647;SDS011;17683;53.360;9.736;2023-05-23T14:14:02;21.52;;;5.20;;
30647;SDS011;17683;53.360;9.736;2023-05-23T14:16:28;16.05;;;4.63;;
30647;SDS011;17683;53.360;9.736;2023-05-23T14:18:54;18.80;;;4.93;;
30647;SDS011;17683;53.360;9.736;2023-05-23T14:21:20;16.20;;;4.50;;
30647;SDS011;17683;53.360;9.736;2023-05-23T14:23:46;16.08;;;4.93;;
30647;SDS011;17683;53.360;9.736;2023-05-23T14:26:12;22.88;;;4.88;;
30647;SDS011;17683;53.360;9.736;2023-05-23T14:28:38;24.77;;;4.35;;
30647;SDS011;17683;53.360;9.736;2023-05-23T14:31:04;16.10;;;3.90;;
30647;SDS011;17683;53.360;9.736;2023-05-23T14:33:30;19.73;;;4.82;;
30647;SDS011;17683;53.360;9.736;2023-05-23T14:35:55;18.30;;;4.63;;
30647;SDS011;17683;53.360;9.736;2023-05-23T14:38:21;17.70;;;4.47;;
30647;SDS011;17683;53.360;9.736;2023-05-23T14:40:47;18.17;;;5.28;;
30647;SDS011;17683;53.360;9.736;2023-05-23T14:43:13;11.82;;;3.83;;
30647;SDS011;17683;53.360;9.736;2023-05-23T14:45:39;19.27;;;4.63;;
30647;SDS011;17683;53.360;9.736;2023-05-23T14:48:06;27.40;;;5.15;;
30647;SDS011;17683;53.360;9.736;2023-05-23T14:50:31;14.32;;;4.30;;
30647;SDS011;17683;53.360;9.736;2023-05-23T14:52:57;15.05;;;3.80;;
30647;SDS011;17683;53.360;9.736;2023-05-23T14:55:23;18.60;;;4.13;;
30647;SDS011;17683;53.360;9.736;2023-05-23T14:57:49;19.00;;;4.47;;
30647;SDS011;17683;53.360;9.736;2023-05-23T15:00:15;18.27;;;3.95;;
30647;SDS011;17683;53.360;9.736;2023-05-23T15:02:41;16.83;;;3.60;;